createdAt,value
2018-09-14T00:01:35.318Z,9.30
2018-09-14T00:04:04.009Z,9.03
2018-09-14T00:06:32.739Z,9.50
2018-09-14T00:09:01.430Z,8.70
2018-09-14T00:11:30.181Z,8.67
2018-09-14T00:13:59.030Z,8.83
2018-09-14T00:16:27.828Z,8.50
2018-09-14T00:18:56.533Z,9.03
2018-09-14T00:21:25.304Z,8.80
2018-09-14T00:23:53.996Z,7.87
2018-09-14T00:26:22.676Z,8.60
2018-09-14T00:28:51.400Z,7.40
2018-09-14T00:31:20.118Z,8.63
2018-09-14T00:33:48.793Z,8.47
2018-09-14T00:36:17.497Z,8.00
2018-09-14T00:38:46.186Z,8.10
2018-09-14T00:41:14.902Z,8.33
2018-09-14T00:43:43.840Z,8.33
2018-09-14T00:46:12.581Z,9.27
2018-09-14T00:48:41.297Z,8.40
2018-09-14T00:51:10.143Z,8.13
2018-09-14T00:53:38.920Z,8.50
2018-09-14T00:56:07.612Z,8.70
2018-09-14T00:58:36.321Z,8.23
2018-09-14T01:01:05.028Z,8.87
2018-09-14T01:03:33.703Z,9.07
2018-09-14T01:06:02.421Z,8.43
2018-09-14T01:08:31.181Z,8.20
2018-09-14T01:10:59.890Z,9.20
2018-09-14T01:13:28.844Z,7.87
2018-09-14T01:15:57.502Z,8.00
2018-09-14T01:18:26.253Z,8.07
2018-09-14T01:20:54.874Z,8.20
2018-09-14T01:23:23.527Z,9.30
2018-09-14T01:25:52.151Z,9.87
2018-09-14T01:28:20.769Z,8.73
2018-09-14T01:30:49.661Z,9.27
2018-09-14T01:33:23.813Z,9.40
2018-09-14T01:35:57.698Z,9.40
2018-09-14T01:38:26.474Z,9.20
2018-09-14T01:40:55.111Z,9.07
2018-09-14T01:43:25.517Z,8.83
2018-09-14T01:45:54.133Z,9.93
2018-09-14T01:48:22.726Z,9.07
2018-09-14T01:50:51.401Z,9.67
2018-09-14T01:53:19.996Z,9.63
2018-09-14T01:55:48.651Z,9.90
2018-09-14T01:58:17.322Z,10.83
2018-09-14T02:00:46.003Z,11.23
2018-09-14T02:03:14.746Z,10.33
2018-09-14T02:05:43.382Z,10.97
2018-09-14T02:08:12.065Z,9.87
2018-09-14T02:10:40.723Z,9.60
2018-09-14T02:13:09.409Z,10.37
2018-09-14T02:15:38.109Z,9.53
2018-09-14T02:18:06.845Z,9.80
2018-09-14T02:20:35.535Z,9.33
2018-09-14T02:23:04.172Z,9.23
2018-09-14T02:25:32.815Z,9.90
2018-09-14T02:28:01.444Z,9.77
2018-09-14T02:30:30.158Z,9.60
2018-09-14T02:32:58.778Z,9.33
2018-09-14T02:35:27.401Z,9.63
2018-09-14T02:37:56.026Z,9.00
2018-09-14T02:40:24.616Z,9.80
2018-09-14T02:42:53.224Z,9.00
2018-09-14T02:45:21.834Z,8.93
2018-09-14T02:47:50.459Z,9.20
2018-09-14T02:50:19.078Z,10.17
2018-09-14T02:52:47.946Z,9.70
2018-09-14T02:55:16.630Z,10.10
2018-09-14T02:57:45.222Z,9.77
2018-09-14T03:00:13.881Z,9.93
2018-09-14T03:02:42.507Z,10.00
2018-09-14T03:05:11.144Z,9.57
2018-09-14T03:07:39.999Z,8.83
2018-09-14T03:10:08.679Z,9.50
2018-09-14T03:12:37.271Z,9.70
2018-09-14T03:15:05.904Z,9.53
2018-09-14T03:17:34.541Z,10.83
2018-09-14T03:20:03.188Z,9.40
2018-09-14T03:22:31.821Z,9.87
2018-09-14T03:25:00.485Z,10.90
2018-09-14T03:27:29.133Z,10.50
2018-09-14T03:29:57.785Z,10.10
2018-09-14T03:32:26.571Z,9.70
2018-09-14T03:34:55.493Z,10.20
2018-09-14T03:37:24.160Z,10.23
2018-09-14T03:39:52.879Z,10.40
2018-09-14T03:42:21.778Z,10.57
2018-09-14T03:44:50.459Z,11.50
2018-09-14T03:47:19.082Z,12.13
2018-09-14T03:49:47.719Z,9.97
2018-09-14T03:52:16.344Z,10.90
2018-09-14T03:54:45.027Z,10.93
2018-09-14T03:57:13.706Z,11.10
2018-09-14T03:59:42.309Z,11.87
2018-09-14T04:02:10.923Z,12.00
2018-09-14T04:04:39.608Z,12.10
2018-09-14T04:07:08.214Z,12.30
2018-09-14T04:09:36.845Z,12.90
2018-09-14T04:12:05.447Z,11.67
2018-09-14T04:14:34.110Z,13.10
2018-09-14T04:17:02.747Z,12.30
2018-09-14T04:19:31.383Z,12.13
2018-09-14T04:22:00.096Z,12.87
2018-09-14T04:24:28.698Z,14.20
2018-09-14T04:26:57.341Z,13.63
2018-09-14T04:29:25.932Z,14.53
2018-09-14T04:31:54.645Z,14.30
2018-09-14T04:34:23.298Z,13.80
2018-09-14T04:36:51.953Z,13.77
2018-09-14T04:39:20.623Z,12.77
2018-09-14T04:41:49.357Z,13.73
2018-09-14T04:44:18.047Z,12.90
2018-09-14T04:46:46.752Z,12.80
2018-09-14T04:49:15.419Z,13.53
2018-09-14T04:51:44.127Z,13.27
2018-09-14T04:54:12.818Z,13.20
2018-09-14T04:56:41.484Z,12.60
2018-09-14T04:59:10.171Z,13.10
2018-09-14T05:01:38.914Z,10.63
2018-09-14T05:04:07.629Z,12.10
2018-09-14T05:06:36.247Z,11.60
2018-09-14T05:09:06.748Z,12.00
2018-09-14T05:11:35.432Z,11.87
2018-09-14T05:14:04.138Z,11.37
2018-09-14T05:16:32.872Z,10.97
2018-09-14T05:19:01.689Z,10.10
2018-09-14T05:21:30.397Z,11.07
2018-09-14T05:23:59.228Z,11.17
2018-09-14T05:26:27.880Z,11.60
2018-09-14T05:28:56.561Z,10.33
2018-09-14T05:31:25.214Z,10.93
2018-09-14T05:33:53.866Z,11.43
2018-09-14T05:36:22.519Z,10.83
2018-09-14T05:38:51.218Z,12.33
2018-09-14T05:41:19.885Z,10.30
2018-09-14T05:43:48.578Z,10.67
2018-09-14T05:46:17.298Z,10.97
2018-09-14T05:48:46.010Z,11.87
2018-09-14T05:51:14.662Z,10.43
2018-09-14T05:53:43.308Z,12.13
2018-09-14T05:56:11.961Z,11.93
2018-09-14T05:58:40.582Z,10.93
2018-09-14T06:01:09.187Z,11.73
2018-09-14T06:03:37.848Z,11.80
2018-09-14T06:06:06.523Z,12.50
2018-09-14T06:08:35.120Z,10.40
2018-09-14T06:11:03.798Z,12.20
2018-09-14T06:13:32.429Z,13.30
2018-09-14T06:16:01.056Z,13.37
2018-09-14T06:18:29.708Z,14.33
2018-09-14T06:20:58.494Z,13.40
2018-09-14T06:23:27.148Z,13.80
2018-09-14T06:25:55.791Z,12.03
2018-09-14T06:28:24.581Z,13.80
2018-09-14T06:30:53.222Z,14.97
2018-09-14T06:33:21.854Z,15.23
2018-09-14T06:35:53.485Z,14.13
2018-09-14T06:38:22.220Z,14.80
2018-09-14T06:40:50.848Z,16.37
2018-09-14T06:43:19.473Z,15.40
2018-09-14T06:45:48.077Z,16.20
2018-09-14T06:48:16.738Z,16.17
2018-09-14T06:50:45.363Z,15.40
2018-09-14T06:53:14.009Z,16.13
2018-09-14T06:55:42.654Z,15.60
2018-09-14T06:58:11.266Z,15.97
2018-09-14T07:00:39.829Z,16.33
2018-09-14T07:03:08.438Z,14.43
2018-09-14T07:05:37.638Z,15.47
2018-09-14T07:08:06.272Z,15.70
2018-09-14T07:10:34.916Z,16.90
2018-09-14T07:13:03.598Z,16.90
2018-09-14T07:15:32.227Z,16.77
2018-09-14T07:18:00.920Z,15.30
2018-09-14T07:20:29.563Z,18.03
2018-09-14T07:22:58.275Z,18.23
2018-09-14T07:25:26.941Z,19.63
2018-09-14T07:27:55.595Z,18.20
2018-09-14T07:30:29.823Z,16.80
2018-09-14T07:32:58.530Z,17.43
2018-09-14T07:35:27.159Z,18.40
2018-09-14T07:37:56.560Z,17.90
2018-09-14T07:40:25.212Z,18.27
2018-09-14T07:42:53.884Z,19.60
2018-09-14T07:45:22.494Z,18.93
2018-09-14T07:47:51.131Z,20.53
2018-09-14T07:50:19.755Z,19.87
2018-09-14T07:52:48.362Z,21.30
2018-09-14T07:55:16.996Z,22.00
2018-09-14T07:57:45.679Z,21.00
2018-09-14T08:00:14.323Z,22.40
2018-09-14T08:02:42.940Z,20.27
2018-09-14T08:05:11.536Z,20.30
2018-09-14T08:07:40.202Z,20.57
2018-09-14T08:10:08.847Z,20.40
2018-09-14T08:12:37.507Z,20.07
2018-09-14T08:15:06.136Z,18.63
2018-09-14T08:17:34.807Z,19.47
2018-09-14T08:20:03.498Z,19.57
2018-09-14T08:22:32.163Z,17.57
2018-09-14T08:25:00.879Z,20.43
2018-09-14T08:27:29.612Z,20.23
2018-09-14T08:29:58.288Z,18.23
2018-09-14T08:32:27.057Z,18.50
2018-09-14T08:34:55.654Z,17.60
2018-09-14T08:37:24.328Z,17.23
2018-09-14T08:39:52.985Z,17.20
2018-09-14T08:42:21.590Z,19.73
2018-09-14T08:44:50.286Z,16.80
2018-09-14T08:47:19.095Z,16.97
2018-09-14T08:49:47.738Z,17.30
2018-09-14T08:52:16.401Z,16.57
2018-09-14T08:54:45.214Z,15.00
2018-09-14T08:57:13.843Z,15.93
2018-09-14T08:59:42.492Z,17.27
2018-09-14T09:02:11.161Z,16.43
2018-09-14T09:04:39.786Z,16.77
2018-09-14T09:07:08.646Z,16.17
2018-09-14T09:09:37.399Z,14.80
2018-09-14T09:12:06.091Z,16.10
2018-09-14T09:14:34.780Z,15.77
2018-09-14T09:17:03.540Z,17.23
2018-09-14T09:19:32.227Z,15.97
2018-09-14T09:22:00.899Z,15.70
2018-09-14T09:24:29.547Z,16.87
2018-09-14T09:26:58.159Z,14.67
2018-09-14T09:29:26.858Z,14.30
2018-09-14T09:31:55.502Z,15.70
2018-09-14T09:34:24.192Z,15.70
2018-09-14T09:36:52.813Z,16.87
2018-09-14T09:39:21.442Z,14.97
2018-09-14T09:41:50.096Z,15.00
2018-09-14T09:44:18.692Z,13.97
2018-09-14T09:46:47.347Z,15.23
2018-09-14T09:49:16.002Z,12.77
2018-09-14T09:51:44.622Z,14.73
2018-09-14T09:54:13.298Z,14.17
2018-09-14T09:56:42.091Z,13.00
2018-09-14T09:59:10.738Z,13.13
2018-09-14T10:01:47.509Z,12.97
2018-09-14T10:04:32.197Z,13.30
2018-09-14T10:07:00.833Z,12.40
2018-09-14T10:09:29.621Z,12.07
2018-09-14T10:11:58.277Z,12.20
2018-09-14T10:14:26.943Z,11.63
2018-09-14T10:16:55.587Z,11.33
2018-09-14T10:19:24.219Z,11.40
2018-09-14T10:21:52.935Z,10.47
2018-09-14T10:24:21.554Z,10.00
2018-09-14T10:26:50.283Z,10.77
2018-09-14T10:29:18.851Z,9.67
2018-09-14T10:31:47.484Z,9.53
2018-09-14T10:34:16.138Z,9.50
2018-09-14T10:36:44.772Z,7.90
2018-09-14T10:39:13.456Z,8.33
2018-09-14T10:41:42.071Z,8.80
2018-09-14T10:44:10.736Z,7.20
2018-09-14T10:46:39.350Z,6.83
2018-09-14T10:49:08.058Z,6.70
2018-09-14T10:51:36.715Z,6.80
2018-09-14T10:54:05.411Z,6.80
2018-09-14T10:56:34.131Z,5.70
2018-09-14T10:59:02.885Z,7.00
2018-09-14T11:01:31.494Z,7.23
2018-09-14T11:04:00.117Z,6.50
2018-09-14T11:06:28.812Z,8.00
2018-09-14T11:08:57.463Z,8.30
2018-09-14T11:11:26.135Z,8.77
2018-09-14T11:13:54.772Z,6.83
2018-09-14T11:16:23.408Z,6.63
2018-09-14T11:18:52.054Z,8.40
2018-09-14T11:21:20.695Z,7.93
2018-09-14T11:23:49.315Z,7.73
2018-09-14T11:26:17.916Z,7.73
2018-09-14T11:28:46.565Z,9.90
2018-09-14T11:31:15.266Z,9.13
2018-09-14T11:33:43.859Z,9.70
2018-09-14T11:36:12.569Z,9.40
2018-09-14T11:38:41.251Z,9.70
2018-09-14T11:41:09.860Z,11.73
2018-09-14T11:43:38.539Z,10.00
2018-09-14T11:46:07.287Z,9.43
2018-09-14T11:48:35.838Z,10.30
2018-09-14T11:51:04.522Z,8.90
2018-09-14T11:53:33.166Z,9.10
2018-09-14T11:56:01.833Z,11.07
2018-09-14T11:58:30.484Z,10.30
2018-09-14T12:00:59.200Z,10.20
2018-09-14T12:03:27.831Z,10.80
2018-09-14T12:05:56.440Z,10.20
2018-09-14T12:08:25.089Z,10.40
2018-09-14T12:10:53.756Z,10.20
2018-09-14T12:13:22.424Z,9.27
2018-09-14T12:15:51.079Z,9.27
2018-09-14T12:18:20.068Z,9.33
2018-09-14T12:20:48.705Z,9.20
2018-09-14T12:23:17.427Z,8.20
2018-09-14T12:25:46.054Z,8.60
2018-09-14T12:28:14.750Z,7.30
2018-09-14T12:30:43.354Z,7.50
2018-09-14T12:33:11.995Z,8.00
2018-09-14T12:35:40.671Z,7.30
2018-09-14T12:38:09.276Z,7.70
2018-09-14T12:40:43.142Z,7.50
2018-09-14T12:43:11.774Z,6.87
2018-09-14T12:45:40.481Z,7.53
2018-09-14T12:48:09.160Z,7.83
2018-09-14T12:50:37.781Z,7.80
2018-09-14T12:53:06.399Z,8.10
2018-09-14T12:55:35.006Z,7.97
2018-09-14T12:58:03.658Z,7.80
2018-09-14T13:00:32.299Z,7.10
2018-09-14T13:03:00.912Z,7.60
2018-09-14T13:05:29.524Z,7.93
2018-09-14T13:07:58.243Z,7.63
2018-09-14T13:10:26.881Z,6.40
2018-09-14T13:12:55.605Z,6.83
2018-09-14T13:15:24.397Z,7.07
2018-09-14T13:17:53.051Z,6.47
2018-09-14T13:20:21.709Z,6.43
2018-09-14T13:22:50.338Z,6.77
2018-09-14T13:25:18.979Z,6.23
2018-09-14T13:27:47.638Z,8.47
2018-09-14T13:30:16.278Z,7.30
2018-09-14T13:32:51.105Z,7.03
2018-09-14T13:35:20.882Z,7.30
2018-09-14T13:37:49.676Z,7.20
2018-09-14T13:40:18.996Z,7.90
2018-09-14T13:42:48.634Z,8.93
2018-09-14T13:45:17.370Z,9.47
2018-09-14T13:47:46.145Z,8.53
2018-09-14T13:50:14.891Z,9.40
2018-09-14T13:52:43.639Z,8.77
2018-09-14T13:55:12.262Z,8.50
2018-09-14T13:57:40.892Z,9.23
2018-09-14T14:00:09.576Z,10.10
2018-09-14T14:02:38.278Z,10.40
2018-09-14T14:05:06.928Z,10.80
2018-09-14T14:07:35.533Z,10.70
2018-09-14T14:10:04.265Z,11.37
2018-09-14T14:12:32.856Z,11.57
2018-09-14T14:15:01.521Z,10.80
2018-09-14T14:17:30.269Z,11.80
2018-09-14T14:19:59.020Z,12.70
2018-09-14T14:22:27.782Z,11.33
2018-09-14T14:24:56.451Z,11.63
2018-09-14T14:27:25.140Z,12.03
2018-09-14T14:29:53.819Z,12.87
2018-09-14T14:32:22.530Z,11.30
2018-09-14T14:34:51.314Z,13.07
2018-09-14T14:37:19.975Z,12.80
2018-09-14T14:39:48.662Z,12.93
2018-09-14T14:42:17.333Z,14.00
2018-09-14T14:44:46.003Z,12.67
2018-09-14T14:47:14.662Z,11.60
2018-09-14T14:49:43.342Z,12.50
2018-09-14T14:52:12.079Z,13.10
2018-09-14T14:54:40.733Z,13.30
2018-09-14T14:57:09.413Z,13.17
2018-09-14T14:59:38.157Z,13.23
2018-09-14T15:02:06.887Z,12.23
2018-09-14T15:04:35.527Z,11.47
2018-09-14T15:07:04.231Z,11.13
2018-09-14T15:09:32.866Z,10.40
2018-09-14T15:12:01.538Z,11.00
2018-09-14T15:14:30.214Z,9.60
2018-09-14T15:16:58.879Z,11.50
2018-09-14T15:19:27.681Z,9.80
2018-09-14T15:21:56.368Z,9.40
2018-09-14T15:24:25.043Z,9.47
2018-09-14T15:26:53.686Z,10.27
2018-09-14T15:29:22.341Z,9.10
2018-09-14T15:31:50.985Z,8.40
2018-09-14T15:34:19.647Z,8.77
2018-09-14T15:36:48.305Z,7.60
2018-09-14T15:39:16.962Z,9.07
2018-09-14T15:41:45.659Z,8.40
2018-09-14T15:44:14.346Z,8.07
2018-09-14T15:46:43.023Z,7.90
2018-09-14T15:49:11.712Z,9.00
2018-09-14T15:51:40.343Z,6.37
2018-09-14T15:54:09.118Z,6.27
2018-09-14T15:56:37.815Z,5.30
2018-09-14T15:59:06.574Z,5.60
2018-09-14T16:01:35.325Z,6.60
2018-09-14T16:04:04.090Z,5.53
2018-09-14T16:06:32.905Z,5.27
2018-09-14T16:09:01.760Z,4.70
2018-09-14T16:11:30.583Z,5.03
2018-09-14T16:13:59.301Z,4.73
2018-09-14T16:16:27.984Z,4.43
2018-09-14T16:18:56.745Z,4.50
2018-09-14T16:21:25.532Z,5.23
2018-09-14T16:23:54.374Z,4.60
2018-09-14T16:26:23.611Z,4.40
2018-09-14T16:28:52.368Z,4.70
2018-09-14T16:31:21.084Z,4.60
2018-09-14T16:33:49.857Z,4.27
2018-09-14T16:36:18.616Z,5.07
2018-09-14T16:38:47.395Z,4.50
2018-09-14T16:41:16.074Z,4.00
2018-09-14T16:43:44.783Z,4.10
2018-09-14T16:46:13.540Z,4.27
2018-09-14T16:48:42.283Z,4.50
2018-09-14T16:51:10.962Z,3.73
2018-09-14T16:53:39.667Z,3.93
2018-09-14T16:56:08.476Z,3.80
2018-09-14T16:58:37.237Z,3.83
2018-09-14T17:01:06.117Z,4.00
2018-09-14T17:03:34.816Z,4.40
2018-09-14T17:06:03.524Z,4.07
2018-09-14T17:08:32.250Z,4.00
2018-09-14T17:11:00.956Z,4.00
2018-09-14T17:13:29.703Z,4.20
2018-09-14T17:15:58.407Z,4.10
2018-09-14T17:18:27.131Z,4.37
2018-09-14T17:20:55.872Z,3.40
2018-09-14T17:23:24.590Z,3.53
2018-09-14T17:25:53.324Z,3.50
2018-09-14T17:28:22.031Z,3.27
2018-09-14T17:30:50.726Z,3.60
2018-09-14T17:33:19.430Z,3.80
2018-09-14T17:35:48.133Z,4.30
2018-09-14T17:38:16.836Z,3.60
2018-09-14T17:40:45.664Z,3.40
2018-09-14T17:43:14.358Z,3.30
2018-09-14T17:45:43.149Z,3.80
2018-09-14T17:48:11.927Z,3.60
2018-09-14T17:50:40.679Z,3.90
2018-09-14T17:53:09.379Z,4.20
2018-09-14T17:55:38.103Z,4.27
2018-09-14T17:58:06.796Z,4.30
2018-09-14T18:00:35.540Z,4.37
2018-09-14T18:03:04.246Z,4.63
2018-09-14T18:05:33.004Z,4.90
2018-09-14T18:08:01.710Z,4.90
2018-09-14T18:10:30.376Z,4.80
2018-09-14T18:12:59.019Z,4.27
2018-09-14T18:15:27.730Z,3.37
2018-09-14T18:17:56.486Z,4.30
2018-09-14T18:20:25.224Z,3.60
2018-09-14T18:22:53.931Z,3.80
2018-09-14T18:25:22.690Z,4.50
2018-09-14T18:27:51.711Z,4.17
2018-09-14T18:30:20.272Z,3.80
2018-09-14T18:32:49.030Z,4.30
2018-09-14T18:35:17.743Z,4.00
2018-09-14T18:37:46.594Z,4.30
2018-09-14T18:40:15.348Z,4.40
2018-09-14T18:42:44.117Z,4.10
2018-09-14T18:45:12.850Z,4.63
2018-09-14T18:47:41.550Z,4.53
2018-09-14T18:50:10.307Z,4.70
2018-09-14T18:52:38.994Z,5.43
2018-09-14T18:55:07.799Z,4.90
2018-09-14T18:57:36.509Z,4.97
2018-09-14T19:00:05.441Z,5.40
2018-09-14T19:02:34.245Z,5.40
2018-09-14T19:05:02.979Z,4.93
2018-09-14T19:07:31.680Z,4.90
2018-09-14T19:10:00.423Z,4.70
2018-09-14T19:12:29.200Z,4.43
2018-09-14T19:14:58.403Z,5.17
2018-09-14T19:17:27.121Z,4.90
2018-09-14T19:19:55.806Z,5.00
2018-09-14T19:22:24.486Z,5.63
2018-09-14T19:24:53.303Z,4.90
2018-09-14T19:27:22.037Z,5.40
2018-09-14T19:29:50.771Z,5.33
2018-09-14T19:32:19.557Z,5.47
2018-09-14T19:34:48.299Z,5.50
2018-09-14T19:37:17.048Z,5.93
2018-09-14T19:39:47.014Z,5.80
2018-09-14T19:42:15.770Z,6.60
2018-09-14T19:44:44.558Z,6.63
2018-09-14T19:47:13.364Z,6.43
2018-09-14T19:49:43.135Z,6.23
2018-09-14T19:52:12.006Z,6.63
2018-09-14T19:54:40.858Z,6.30
2018-09-14T19:57:09.701Z,6.27
2018-09-14T19:59:38.727Z,7.87
2018-09-14T20:02:07.542Z,7.03
2018-09-14T20:04:36.240Z,8.53
2018-09-14T20:07:05.020Z,8.63
2018-09-14T20:09:33.774Z,7.50
2018-09-14T20:12:02.495Z,6.10
2018-09-14T20:14:31.329Z,8.30
2018-09-14T20:17:00.061Z,6.93
2018-09-14T20:19:28.914Z,7.23
2018-09-14T20:21:57.688Z,6.93
2018-09-14T20:24:26.997Z,6.97
2018-09-14T20:26:55.690Z,6.93
2018-09-14T20:29:24.437Z,6.60
2018-09-14T20:31:53.607Z,7.23
2018-09-14T20:34:22.315Z,6.97
2018-09-14T20:36:51.076Z,7.97
2018-09-14T20:39:19.865Z,6.40
2018-09-14T20:41:48.642Z,8.43
2018-09-14T20:44:17.419Z,8.20
2018-09-14T20:46:46.141Z,7.33
2018-09-14T20:49:14.972Z,7.10
2018-09-14T20:51:43.760Z,7.83
2018-09-14T20:54:12.498Z,7.90
2018-09-14T20:56:41.212Z,7.73
2018-09-14T20:59:10.017Z,7.03
2018-09-14T21:01:38.766Z,7.30
2018-09-14T21:04:07.612Z,6.77
2018-09-14T21:06:36.287Z,7.70
2018-09-14T21:09:07.796Z,7.30
2018-09-14T21:11:36.925Z,6.70
2018-09-14T21:14:05.787Z,7.70
2018-09-14T21:16:34.883Z,8.50
2018-09-14T21:19:04.072Z,7.57
2018-09-14T21:21:32.813Z,7.50
2018-09-14T21:24:01.594Z,8.10
2018-09-14T21:26:30.511Z,7.47
2018-09-14T21:28:59.298Z,8.23
2018-09-14T21:31:28.111Z,7.80
2018-09-14T21:33:57.067Z,8.50
2018-09-14T21:36:25.882Z,8.33
2018-09-14T21:38:54.680Z,8.40
2018-09-14T21:41:23.467Z,7.77
2018-09-14T21:43:52.426Z,7.57
2018-09-14T21:46:21.369Z,9.20
2018-09-14T21:48:50.326Z,8.30
2018-09-14T21:51:19.087Z,8.60
2018-09-14T21:53:48.085Z,9.03
2018-09-14T21:56:16.821Z,9.20
2018-09-14T21:58:46.036Z,9.80
2018-09-14T22:01:18.883Z,8.43
2018-09-14T22:03:47.652Z,8.63
2018-09-14T22:06:16.380Z,8.93
2018-09-14T22:08:45.154Z,8.80
2018-09-14T22:11:13.989Z,8.67
2018-09-14T22:13:42.790Z,8.77
2018-09-14T22:16:11.576Z,8.60
2018-09-14T22:18:40.348Z,8.33
2018-09-14T22:21:09.162Z,9.13
2018-09-14T22:23:38.089Z,9.37
2018-09-14T22:26:07.076Z,8.53
2018-09-14T22:28:35.957Z,8.80
2018-09-14T22:31:04.759Z,9.60
2018-09-14T22:33:33.738Z,9.30
2018-09-14T22:36:02.511Z,8.50
2018-09-14T22:38:31.286Z,8.97
2018-09-14T22:41:00.019Z,10.47
2018-09-14T22:43:28.685Z,11.10
2018-09-14T22:45:57.459Z,11.50
2018-09-14T22:48:26.253Z,13.53
2018-09-14T22:50:55.025Z,13.80
2018-09-14T22:53:23.837Z,15.20
2018-09-14T22:55:52.888Z,14.70
2018-09-14T22:58:21.715Z,13.77
2018-09-14T23:00:55.675Z,16.60
2018-09-14T23:03:24.480Z,15.27
2018-09-14T23:05:53.226Z,16.30
2018-09-14T23:08:22.128Z,18.00
2018-09-14T23:10:50.895Z,19.00
2018-09-14T23:13:19.786Z,18.93
2018-09-14T23:15:53.298Z,18.50
2018-09-14T23:18:22.109Z,21.30
2018-09-14T23:20:51.029Z,22.40
2018-09-14T23:23:19.943Z,20.23
2018-09-14T23:25:49.291Z,22.53
2018-09-14T23:28:18.047Z,21.73
2018-09-14T23:30:46.806Z,22.43
2018-09-14T23:33:15.543Z,20.20
2018-09-14T23:35:44.274Z,21.30
2018-09-14T23:38:13.107Z,21.23
2018-09-14T23:40:41.878Z,20.93
2018-09-14T23:43:10.572Z,20.37
2018-09-14T23:45:39.320Z,21.10
2018-09-14T23:48:09.002Z,20.60
2018-09-14T23:50:37.741Z,21.17
2018-09-14T23:53:06.614Z,19.70
2018-09-14T23:55:35.340Z,18.97
2018-09-14T23:58:04.118Z,21.67
